Time;durP1;ratioP1;P1;durP2;ratioP2;P2;SDS_P1;SDS_P2;PMS_P1;PMS_P2;Temp;Humidity;BMP_temperature;BMP_pressure;BME280_temperature;BME280_humidity;BME280_pressure;Samples;Min_cycle;Max_cycle;Signal;HPM_P1;HPM_P2
2023/09/12 00:00:52;;;;;;;26.17;5.75;;;;;;;20.16;65.94;100867.81;4991842;28;20022;-84
2023/09/12 00:03:21;;;;;;;13.40;6.32;;;;;;;20.20;65.88;100866.41;4991635;28;20045;-82
2023/09/12 00:05:54;;;;;;;16.88;6.22;;;;;;;20.20;66.17;100863.69;4956916;28;20422;-83
2023/09/12 00:08:20;;;;;;;19.45;5.45;;;;;;;20.16;66.16;100862.34;4991391;28;20117;-85
2023/09/12 00:10:45;;;;;;;16.20;5.03;;;;;;;20.16;66.13;100862.34;4991426;28;20121;-83
2023/09/12 00:13:11;;;;;;;12.52;5.00;;;;;;;20.11;66.58;100860.16;4991273;28;20114;-82
2023/09/12 00:15:36;;;;;;;12.68;5.18;;;;;;;20.10;66.31;100869.38;4991052;28;20058;-84
2023/09/12 00:18:02;;;;;;;16.27;7.45;;;;;;;20.04;66.43;100860.03;4990515;28;20038;-85
2023/09/12 00:20:28;;;;;;;8.45;4.93;;;;;;;19.98;65.90;100854.44;4991267;28;20137;-82
2023/09/12 00:22:54;;;;;;;7.68;5.30;;;;;;;19.99;66.46;100856.16;4991321;28;20451;-82
2023/09/12 00:25:21;;;;;;;8.98;5.10;;;;;;;20.00;66.60;100857.84;4991093;28;20477;-84
2023/09/12 00:27:46;;;;;;;7.47;4.75;;;;;;;20.04;66.67;100859.19;4990514;28;20112;-81
2023/09/12 00:30:14;;;;;;;8.02;5.18;;;;;;;19.83;66.55;100824.34;4973156;28;20034;-84
2023/09/12 00:32:39;;;;;;;11.52;5.35;;;;;;;20.01;66.93;100865.00;4991400;28;20026;-81
2023/09/12 00:35:05;;;;;;;9.07;5.72;;;;;;;19.90;66.73;100830.78;4990403;28;20041;-84
2023/09/12 00:37:30;;;;;;;15.68;6.32;;;;;;;20.03;66.72;100852.00;4990867;28;20022;-82
2023/09/12 00:39:56;;;;;;;12.75;6.05;;;;;;;19.94;66.69;100853.09;4990730;28;20069;-82
2023/09/12 00:42:21;;;;;;;11.90;5.35;;;;;;;19.95;66.97;100858.38;4990588;28;20029;-81
2023/09/12 00:44:47;;;;;;;20.55;6.28;;;;;;;19.87;67.23;100852.97;4990740;28;20092;-84
2023/09/12 00:47:13;;;;;;;11.82;4.88;;;;;;;19.90;67.47;100851.78;4989925;28;20059;-82
2023/09/12 00:49:39;;;;;;;12.40;5.78;;;;;;;19.86;67.53;100850.41;4990205;28;20415;-82
2023/09/12 00:52:06;;;;;;;21.17;6.25;;;;;;;19.80;67.59;100838.34;4990423;28;20031;-82
2023/09/12 00:54:31;;;;;;;11.25;5.28;;;;;;;19.90;67.57;100857.22;4990440;28;20037;-82
2023/09/12 00:56:57;;;;;;;9.57;5.38;;;;;;;19.86;67.57;100864.91;4988198;28;20422;-84
2023/09/12 00:59:23;;;;;;;12.88;5.40;;;;;;;19.84;67.75;100863.41;4961183;28;20181;-84
2023/09/12 01:01:48;;;;;;;11.82;5.00;;;;;;;19.84;67.65;100860.69;4971761;28;20038;-80
2023/09/12 01:04:14;;;;;;;11.20;4.95;;;;;;;19.66;67.78;100841.00;4972593;28;20089;-83
2023/09/12 01:06:40;;;;;;;10.10;5.38;;;;;;;19.75;68.14;100867.22;4990725;28;20033;-82
2023/09/12 01:09:05;;;;;;;10.93;5.07;;;;;;;19.58;68.14;100847.31;4989834;28;20087;-83
2023/09/12 01:11:31;;;;;;;7.43;4.72;;;;;;;19.63;68.42;100849.53;4990603;28;20130;-82
2023/09/12 01:13:57;;;;;;;8.98;5.00;;;;;;;19.68;68.15;100858.03;4989334;28;20030;-84
2023/09/12 01:16:22;;;;;;;20.88;6.00;;;;;;;19.73;68.11;100861.91;4989993;28;20080;-82
2023/09/12 01:18:48;;;;;;;15.52;4.50;;;;;;;19.77;68.00;100862.41;4989775;28;20457;-83
2023/09/12 01:21:29;;;;;;;7.65;4.80;;;;;;;19.75;67.91;100865.34;4990077;28;20490;-83
2023/09/12 01:24:20;;;;;;;17.85;5.40;;;;;;;19.75;67.98;100870.78;4989871;28;20491;-82
2023/09/12 01:27:25;;;;;;;11.07;5.60;;;;;;;19.69;67.98;100868.78;4987142;28;20037;-83
2023/09/12 01:30:00;;;;;;;11.10;5.40;;;;;;;19.52;68.46;100867.13;4948727;28;20054;-83
2023/09/12 01:32:26;;;;;;;26.58;6.28;;;;;;;19.59;68.33;100870.00;4948590;28;20035;-82
2023/09/12 01:34:52;;;;;;;11.25;5.95;;;;;;;19.49;67.75;100854.69;4933740;28;20098;-83
2023/09/12 01:37:17;;;;;;;15.88;5.75;;;;;;;19.61;67.87;100874.25;4913502;29;20496;-81
2023/09/12 01:39:43;;;;;;;12.98;4.95;;;;;;;19.59;67.86;100875.47;4929462;29;20051;-83
2023/09/12 01:42:16;;;;;;;13.85;5.88;;;;;;;19.54;68.09;100868.66;4929180;29;20519;-82
2023/09/12 01:44:44;;;;;;;14.32;6.07;;;;;;;19.59;68.00;100876.31;4929215;29;20032;-82
2023/09/12 01:47:12;;;;;;;11.43;5.15;;;;;;;19.51;68.08;100866.28;4928516;29;20563;-83
2023/09/12 01:49:41;;;;;;;14.13;5.57;;;;;;;19.53;68.13;100880.59;4943368;28;20035;-82
2023/09/12 01:52:07;;;;;;;15.30;5.90;;;;;;;19.53;68.14;100877.88;4948472;28;20066;-83
2023/09/12 01:54:34;;;;;;;10.68;5.80;;;;;;;19.50;68.43;100872.78;4936973;28;20564;-83
2023/09/12 01:57:01;;;;;;;16.38;6.25;;;;;;;19.51;68.39;100874.47;4929635;29;20039;-83
2023/09/12 01:59:27;;;;;;;13.63;5.78;;;;;;;19.50;68.78;100875.50;4929132;29;20119;-81
2023/09/12 02:01:53;;;;;;;10.32;5.75;;;;;;;19.50;68.77;100861.88;4928757;29;20106;-83
2023/09/12 02:04:18;;;;;;;8.07;5.53;;;;;;;19.50;68.69;100864.59;4929344;29;20115;-83
2023/09/12 02:06:44;;;;;;;14.32;6.35;;;;;;;19.45;68.81;100868.84;4960761;28;20046;-82
2023/09/12 02:09:09;;;;;;;12.30;5.65;;;;;;;19.49;68.77;100859.28;4981762;28;20088;-82
2023/09/12 02:11:34;;;;;;;23.05;6.47;;;;;;;19.51;68.50;100863.53;4989560;28;20042;-81
2023/09/12 02:14:00;;;;;;;15.93;5.53;;;;;;;19.48;68.72;100863.91;4989427;28;20023;-83
2023/09/12 02:16:25;;;;;;;17.85;5.55;;;;;;;19.42;68.63;100864.59;4989381;28;20200;-82
2023/09/12 02:18:51;;;;;;;5.70;4.57;;;;;;;19.47;68.52;100870.41;4998028;28;20772;-82
2023/09/12 02:21:16;;;;;;;9.63;5.10;;;;;;;19.18;68.45;100817.44;4991821;28;20022;-80
2023/09/12 02:23:42;;;;;;;16.52;5.72;;;;;;;19.43;68.38;100860.84;4989545;28;20048;-84
2023/09/12 02:26:07;;;;;;;11.50;5.40;;;;;;;19.41;68.62;100862.06;4990174;28;20540;-82
2023/09/12 02:28:33;;;;;;;23.08;6.25;;;;;;;19.37;68.69;100858.81;4971234;28;20030;-82
2023/09/12 02:30:58;;;;;;;21.00;6.35;;;;;;;19.28;68.71;100853.53;4989855;28;20642;-81
2023/09/12 02:33:24;;;;;;;13.30;5.68;;;;;;;19.14;68.90;100829.75;4990213;28;20038;-82
2023/09/12 02:35:49;;;;;;;17.90;6.38;;;;;;;19.22;69.18;100866.00;4992046;28;20475;-82
2023/09/12 02:38:17;;;;;;;11.15;4.78;;;;;;;19.20;69.36;100864.50;5007878;28;20090;-79
2023/09/12 02:40:43;;;;;;;50.03;9.40;;;;;;;19.10;69.59;100856.50;4997565;28;20041;-80
2023/09/12 02:43:08;;;;;;;25.52;7.50;;;;;;;19.00;69.98;100850.38;5018334;28;20058;-78
2023/09/12 02:45:34;;;;;;;25.20;6.45;;;;;;;19.13;70.09;100867.06;5018715;28;20054;-79
2023/09/12 02:47:59;;;;;;;20.85;6.88;;;;;;;19.18;70.27;100872.84;5020154;28;20037;-81
2023/09/12 02:50:24;;;;;;;19.95;6.47;;;;;;;19.15;70.39;100867.72;5020059;28;20022;-82
2023/09/12 02:52:50;;;;;;;27.60;6.05;;;;;;;19.15;70.24;100873.19;5003211;28;20062;-82
2023/09/12 02:55:15;;;;;;;13.60;6.47;;;;;;;19.19;70.25;100874.53;4993732;28;20038;-82
2023/09/12 02:57:41;;;;;;;18.23;5.75;;;;;;;19.14;70.39;100871.50;4993120;28;20029;-83
2023/09/12 03:00:08;;;;;;;17.27;7.18;;;;;;;19.11;70.37;100879.16;4974934;28;20450;-83
2023/09/12 03:02:34;;;;;;;12.77;6.72;;;;;;;18.88;70.74;100854.50;4992473;28;20038;-83
2023/09/12 03:05:01;;;;;;;23.25;7.00;;;;;;;18.93;71.02;100874.75;4992871;28;20084;-81
2023/09/12 03:07:26;;;;;;;16.63;6.82;;;;;;;18.87;70.96;100853.63;4992308;28;20030;-84
2023/09/12 03:09:52;;;;;;;29.80;7.25;;;;;;;19.03;70.98;100867.25;4991990;28;20414;-84
2023/09/12 03:12:17;;;;;;;16.30;6.35;;;;;;;18.88;70.79;100844.44;4991946;28;20026;-84
2023/09/12 03:14:43;;;;;;;26.60;7.32;;;;;;;18.92;70.82;100845.81;4992020;28;20370;-84
2023/09/12 03:17:08;;;;;;;21.83;6.10;;;;;;;18.92;70.78;100850.41;4975706;28;20490;-84
2023/09/12 03:19:34;;;;;;;17.48;6.28;;;;;;;19.03;70.51;100871.84;4992114;28;20029;-84
2023/09/12 03:21:59;;;;;;;11.13;5.57;;;;;;;19.07;70.78;100875.94;4991862;28;20033;-83
2023/09/12 03:24:25;;;;;;;26.85;6.18;;;;;;;18.97;70.88;100865.22;4991655;28;20042;-84
2023/09/12 03:26:51;;;;;;;24.30;6.75;;;;;;;19.00;70.94;100866.75;4992294;28;20442;-80
2023/09/12 03:29:17;;;;;;;18.05;7.25;;;;;;;19.08;70.67;100874.06;4991894;28;20030;-84
2023/09/12 03:31:42;;;;;;;22.67;8.65;;;;;;;19.10;70.67;100878.31;4991848;28;20035;-81
2023/09/12 03:34:08;;;;;;;52.22;10.57;;;;;;;19.05;70.67;100883.41;4991567;28;20096;-82
2023/09/12 03:36:33;;;;;;;28.25;9.13;;;;;;;18.94;70.35;100856.53;4993046;28;20032;-80
2023/09/12 03:38:59;;;;;;;20.10;7.40;;;;;;;19.01;70.37;100882.09;4975850;28;20034;-82
2023/09/12 03:41:25;;;;;;;24.33;8.60;;;;;;;19.07;70.58;100883.25;4991713;28;20031;-80
2023/09/12 03:43:55;;;;;;;27.40;8.65;;;;;;;19.01;70.51;100879.34;4991902;28;20042;-83
2023/09/12 03:46:20;;;;;;;23.85;8.75;;;;;;;18.88;70.88;100865.41;4991446;28;20050;-82
2023/09/12 03:48:46;;;;;;;40.10;10.48;;;;;;;19.00;70.85;100883.94;4991697;28;20057;-80
2023/09/12 03:51:12;;;;;;;36.90;8.98;;;;;;;18.90;71.11;100869.66;4991562;28;20402;-82
2023/09/12 03:53:38;;;;;;;41.75;8.77;;;;;;;19.06;70.86;100889.72;4990145;28;20113;-82
2023/09/12 03:56:03;;;;;;;19.73;9.15;;;;;;;18.98;70.97;100882.44;4990964;28;20113;-83
2023/09/12 03:58:29;;;;;;;83.10;14.10;;;;;;;18.99;71.01;100887.69;4992239;28;20023;-83
2023/09/12 04:00:54;;;;;;;29.58;9.90;;;;;;;19.00;71.19;100896.72;4992412;28;20487;-83
2023/09/12 04:03:20;;;;;;;38.45;8.93;;;;;;;18.99;71.15;100905.91;4992370;28;20030;-82
2023/09/12 04:05:50;;;;;;;41.03;9.90;;;;;;;18.91;71.36;100905.94;4991511;28;20042;-84
2023/09/12 04:08:16;;;;;;;32.67;9.52;;;;;;;18.83;71.82;100911.41;4991671;28;20131;-82
2023/09/12 04:10:42;;;;;;;53.65;10.65;;;;;;;18.87;72.02;100907.28;4988785;28;20061;-83
2023/09/12 04:13:07;;;;;;;40.47;10.32;;;;;;;18.93;71.92;100920.22;4991268;28;20038;-82
2023/09/12 04:15:33;;;;;;;38.78;10.93;;;;;;;19.00;71.87;100913.09;4990395;28;20038;-83
2023/09/12 04:17:59;;;;;;;52.53;11.07;;;;;;;18.98;71.55;100904.25;4991027;28;20081;-83
2023/09/12 04:20:24;;;;;;;48.28;10.88;;;;;;;19.03;71.46;100910.88;4990801;28;20026;-84
2023/09/12 04:22:50;;;;;;;72.75;12.73;;;;;;;19.07;71.12;100910.53;4990484;28;20136;-84
2023/09/12 04:25:15;;;;;;;59.28;12.23;;;;;;;19.13;71.05;100921.59;4990819;28;20060;-82
2023/09/12 04:27:41;;;;;;;50.05;11.55;;;;;;;19.11;70.94;100910.00;4990797;28;20050;-83
2023/09/12 04:30:08;;;;;;;57.17;14.57;;;;;;;19.20;70.50;100919.88;4990965;28;20045;-83
2023/09/12 04:32:34;;;;;;;36.88;13.43;;;;;;;19.24;70.30;100921.22;4990755;28;20049;-84
2023/09/12 04:34:59;;;;;;;69.75;12.90;;;;;;;19.29;70.16;100918.00;4990829;28;20031;-84
2023/09/12 04:37:25;;;;;;;72.47;15.20;;;;;;;19.27;70.32;100907.22;4990825;28;20030;-82
2023/09/12 04:39:50;;;;;;;83.20;15.50;;;;;;;19.34;70.27;100916.44;4972988;28;20805;-85
2023/09/12 04:42:16;;;;;;;45.88;14.65;;;;;;;19.39;69.99;100915.91;4990734;28;20026;-84
2023/09/12 04:44:42;;;;;;;54.13;14.43;;;;;;;19.33;69.94;100909.28;5003115;28;20025;-82
2023/09/12 04:47:08;;;;;;;54.70;16.25;;;;;;;19.23;69.84;100892.28;4987055;28;20062;-82
2023/09/12 04:49:33;;;;;;;60.88;14.80;;;;;;;19.38;70.32;100917.78;5011320;28;20030;-80
2023/09/12 04:51:59;;;;;;;59.67;16.40;;;;;;;19.36;70.27;100913.50;5008931;28;20101;-82
2023/09/12 04:54:25;;;;;;;91.05;18.90;;;;;;;19.43;70.16;100915.41;5007778;28;20035;-84
2023/09/12 04:56:51;;;;;;;85.43;19.90;;;;;;;19.53;70.22;100921.53;4999120;28;20045;-84
2023/09/12 04:59:17;;;;;;;84.60;20.45;;;;;;;19.38;69.97;100879.59;4990400;28;20030;-83
2023/09/12 05:01:42;;;;;;;48.63;15.57;;;;;;;19.50;69.75;100883.69;4990342;28;20050;-83
2023/09/12 05:04:08;;;;;;;61.53;17.50;;;;;;;19.78;69.58;100919.56;4990796;28;20053;-83
2023/09/12 05:06:33;;;;;;;44.67;16.65;;;;;;;19.76;69.22;100898.91;4990773;28;20117;-83
2023/09/12 05:08:59;;;;;;;57.58;18.13;;;;;;;19.91;69.20;100924.44;4989524;28;20031;-83
2023/09/12 05:11:24;;;;;;;62.88;19.75;;;;;;;19.98;68.82;100919.97;4990912;28;20042;-81
2023/09/12 05:13:51;;;;;;;60.97;19.67;;;;;;;20.05;68.66;100920.97;4990057;28;20042;-83
2023/09/12 05:16:16;;;;;;;81.15;24.27;;;;;;;20.19;68.26;100930.25;4990637;28;20022;-83
2023/09/12 05:18:42;;;;;;;80.13;22.13;;;;;;;20.24;68.14;100919.66;4990235;28;20022;-83
2023/09/12 05:21:07;;;;;;;48.47;19.55;;;;;;;20.34;67.70;100931.22;4990634;28;20109;-83
2023/09/12 05:23:33;;;;;;;76.45;23.38;;;;;;;20.43;67.44;100924.66;4990466;28;20026;-85
2023/09/12 05:25:58;;;;;;;58.42;21.63;;;;;;;20.49;67.30;100923.94;4951992;28;20047;-85
2023/09/12 05:28:23;;;;;;;69.25;24.27;;;;;;;20.58;66.86;100931.91;4970170;28;20057;-83
2023/09/12 05:30:49;;;;;;;99.68;26.30;;;;;;;20.66;66.73;100935.63;4970751;28;20094;-85
2023/09/12 05:33:15;;;;;;;73.20;23.20;;;;;;;20.74;66.29;100939.13;4977136;28;20565;-82
2023/09/12 05:35:41;;;;;;;70.03;23.83;;;;;;;20.73;65.83;100925.66;4989710;28;20475;-84
2023/09/12 05:38:06;;;;;;;54.08;23.77;;;;;;;20.84;65.63;100928.81;4989395;28;20033;-81
2023/09/12 05:40:32;;;;;;;63.28;23.75;;;;;;;20.98;65.56;100921.66;4989066;28;20109;-83
2023/09/12 05:42:57;;;;;;;96.47;27.52;;;;;;;21.07;65.40;100931.50;4990089;28;20118;-81
2023/09/12 05:45:23;;;;;;;60.13;23.73;;;;;;;21.13;65.24;100925.31;4988845;28;20541;-84
2023/09/12 05:47:50;;;;;;;65.13;24.00;;;;;;;21.09;65.08;100913.06;4989192;28;20038;-81
2023/09/12 05:50:16;;;;;;;82.00;24.77;;;;;;;21.32;64.66;100921.19;4989669;28;20089;-83
2023/09/12 05:52:42;;;;;;;60.67;23.25;;;;;;;21.40;64.51;100916.50;4989319;28;20035;-83
2023/09/12 05:55:08;;;;;;;72.65;24.95;;;;;;;21.50;64.14;100928.00;4989201;28;20070;-82
2023/09/12 05:57:34;;;;;;;68.15;26.15;;;;;;;21.58;63.75;100929.81;4989545;28;20100;-82
2023/09/12 05:59:59;;;;;;;84.25;28.73;;;;;;;21.70;63.01;100920.09;4989905;28;20030;-82
2023/09/12 06:02:26;;;;;;;51.50;29.42;;;;;;;21.69;63.00;100921.97;4988734;28;20038;-85
2023/09/12 06:04:52;;;;;;;67.65;26.63;;;;;;;21.84;62.80;100932.91;4989206;28;20058;-83
2023/09/12 06:07:17;;;;;;;56.70;24.90;;;;;;;22.00;62.71;100938.22;4938949;28;20038;-83
2023/09/12 06:09:43;;;;;;;76.82;26.67;;;;;;;22.13;62.35;100927.44;4989159;28;20618;-85
2023/09/12 06:12:08;;;;;;;58.47;22.55;;;;;;;22.22;61.97;100928.16;4991769;28;20061;-83
2023/09/12 06:14:33;;;;;;;75.32;24.25;;;;;;;22.34;61.59;100928.50;4990527;28;20058;-84
2023/09/12 06:16:59;;;;;;;38.05;12.93;;;;;;;22.43;60.82;100930.94;4991128;28;20027;-84
2023/09/12 06:19:24;;;;;;;43.28;14.52;;;;;;;22.37;60.45;100904.28;4989724;28;20026;-83
2023/09/12 06:21:50;;;;;;;49.72;18.88;;;;;;;22.52;60.06;100909.72;4994502;28;20069;-84
2023/09/12 06:24:23;;;;;;;31.88;14.88;;;;;;;22.75;59.89;100937.84;4993021;28;20058;-83
2023/09/12 06:26:49;;;;;;;49.95;17.00;;;;;;;22.82;59.55;100943.38;4975507;28;20050;-84
2023/09/12 06:29:15;;;;;;;47.28;15.45;;;;;;;22.80;59.39;100923.53;4975501;28;20037;-82
2023/09/12 06:31:43;;;;;;;41.10;15.73;;;;;;;22.99;59.32;100939.31;4975544;28;20053;-82
2023/09/12 06:34:09;;;;;;;61.25;17.10;;;;;;;22.99;59.14;100929.19;4992828;28;20094;-82
2023/09/12 06:36:34;;;;;;;34.00;12.77;;;;;;;23.25;59.07;100950.50;4991386;28;20506;-84
2023/09/12 06:39:00;;;;;;;38.10;13.98;;;;;;;23.31;58.99;100953.31;4992918;28;20030;-82
2023/09/12 06:41:28;;;;;;;52.30;15.25;;;;;;;23.45;58.89;100951.53;4992781;28;20093;-83
2023/09/12 06:43:54;;;;;;;38.47;15.63;;;;;;;23.56;58.56;100950.97;4992995;28;20030;-84
2023/09/12 06:46:19;;;;;;;38.63;14.07;;;;;;;23.58;58.05;100954.34;4987701;28;20658;-83
2023/09/12 06:48:45;;;;;;;35.78;14.77;;;;;;;23.67;57.73;100955.91;4986254;28;20033;-83
2023/09/12 06:51:12;;;;;;;32.72;17.88;;;;;;;23.59;57.62;100953.31;4992306;28;20034;-83
2023/09/12 06:53:38;;;;;;;41.25;15.30;;;;;;;23.71;57.70;100961.84;4975008;28;20438;-85
2023/09/12 06:56:04;;;;;;;44.55;15.30;;;;;;;23.79;57.34;100962.50;4963392;28;20469;-81
2023/09/12 06:58:30;;;;;;;29.92;8.95;;;;;;;23.84;56.92;100954.53;4973525;28;20085;-84
2023/09/12 07:00:55;;;;;;;22.27;7.05;;;;;;;23.92;56.34;100969.97;4973373;28;20042;-82
2023/09/12 07:03:21;;;;;;;29.48;6.70;;;;;;;24.00;55.66;100960.75;4973059;28;20093;-85
2023/09/12 07:05:46;;;;;;;17.63;8.10;;;;;;;24.15;55.48;100967.81;4974796;28;20049;-82
2023/09/12 07:08:12;;;;;;;36.05;8.00;;;;;;;24.15;55.18;100959.56;4992199;28;20128;-84
2023/09/12 07:10:43;;;;;;;17.15;5.38;;;;;;;24.16;54.50;100957.66;4993196;28;20038;-83
2023/09/12 07:13:08;;;;;;;5.90;3.55;;;;;;;24.04;53.97;100978.50;4992064;28;20022;-83
2023/09/12 07:15:35;;;;;;;14.77;4.05;;;;;;;24.05;54.15;100975.56;4992284;28;20045;-83
2023/09/12 07:18:02;;;;;;;43.05;5.95;;;;;;;24.11;54.22;100984.91;4992495;28;20496;-84
2023/09/12 07:20:27;;;;;;;14.50;3.88;;;;;;;24.02;54.17;100980.63;4993102;28;20026;-85
2023/09/12 07:23:05;;;;;;;13.27;3.60;;;;;;;23.95;54.52;100982.47;4986478;28;20034;-87
2023/09/12 07:25:40;;;;;;;23.88;5.15;;;;;;;23.97;54.21;100988.63;4962675;28;20037;-84
2023/09/12 07:28:06;;;;;;;8.63;4.20;;;;;;;23.96;54.19;100981.41;4999768;28;20026;-84
2023/09/12 07:30:31;;;;;;;8.30;3.30;;;;;;;24.00;54.79;100982.72;5010835;28;20050;-82
2023/09/12 07:32:57;;;;;;;12.98;5.00;;;;;;;24.13;54.63;100980.91;4985711;28;20030;-80
2023/09/12 07:35:23;;;;;;;17.23;10.20;;;;;;;24.03;54.30;100985.91;4981085;28;20038;-82
2023/09/12 07:37:49;;;;;;;16.50;6.78;;;;;;;23.83;54.91;100987.69;4999217;28;20078;-80
2023/09/12 07:40:15;;;;;;;7.85;4.25;;;;;;;24.03;54.93;100990.56;4996310;28;20034;-83
2023/09/12 07:42:41;;;;;;;6.82;3.47;;;;;;;23.97;54.20;100963.91;4984164;28;20042;-84
2023/09/12 07:45:07;;;;;;;20.30;4.80;;;;;;;24.17;54.29;100973.97;4975069;28;20041;-84
2023/09/12 07:47:33;;;;;;;18.23;4.80;;;;;;;24.16;54.11;100960.41;4996859;28;20046;-84
2023/09/12 07:50:00;;;;;;;7.97;3.97;;;;;;;24.20;53.80;100973.53;4989588;28;20040;-84
2023/09/12 07:52:28;;;;;;;11.73;3.85;;;;;;;24.36;53.85;100984.19;4992885;28;20514;-84
2023/09/12 07:54:59;;;;;;;14.63;4.22;;;;;;;24.53;53.42;100976.41;4991328;28;20023;-85
2023/09/12 07:57:24;;;;;;;16.85;4.28;;;;;;;24.63;53.61;100971.38;4991954;28;20503;-84
2023/09/12 07:59:50;;;;;;;29.67;4.60;;;;;;;24.64;53.18;100947.47;4992343;28;20026;-84
2023/09/12 08:02:15;;;;;;;14.07;5.13;;;;;;;24.85;52.76;100978.44;4975863;28;20384;-83
2023/09/12 08:04:41;;;;;;;34.88;6.10;;;;;;;24.78;52.71;100960.16;4992091;28;20038;-85
2023/09/12 08:07:06;;;;;;;15.57;4.07;;;;;;;24.94;52.75;100981.81;4992069;28;20027;-83
2023/09/12 08:10:07;;;;;;;12.05;3.78;;;;;;;24.96;52.78;100978.84;4998142;28;20038;-83
2023/09/12 08:12:33;;;;;;;29.85;4.70;;;;;;;24.71;53.25;100976.66;4927400;29;20028;-84
2023/09/12 08:14:59;;;;;;;25.08;4.18;;;;;;;24.90;53.07;100975.88;4931460;29;20053;-86
2023/09/12 08:17:25;;;;;;;25.33;5.07;;;;;;;25.08;52.57;100982.66;4931303;29;20032;-84
2023/09/12 08:19:51;;;;;;;5.97;3.80;;;;;;;25.20;52.99;100989.25;4930862;29;20146;-84
2023/09/12 08:22:17;;;;;;;8.63;3.17;;;;;;;25.14;53.86;100990.09;4931318;29;20035;-86
2023/09/12 08:24:42;;;;;;;21.58;4.53;;;;;;;25.22;53.73;100993.50;4915948;29;20059;-86
2023/09/12 08:27:09;;;;;;;14.88;3.60;;;;;;;25.14;53.95;100977.16;4931127;29;20032;-83
2023/09/12 08:29:34;;;;;;;14.70;4.32;;;;;;;25.25;53.95;100992.22;4911853;29;20063;-89
2023/09/12 08:32:01;;;;;;;23.05;5.68;;;;;;;25.18;54.67;100988.63;4911576;29;20111;-84
2023/09/12 08:34:26;;;;;;;22.48;4.35;;;;;;;25.22;54.08;100989.91;4902856;29;20084;-80
2023/09/12 08:36:52;;;;;;;42.38;6.97;;;;;;;25.13;54.07;100986.50;4905144;29;20032;-79
2023/09/12 08:39:24;;;;;;;15.20;4.03;;;;;;;25.15;53.87;100995.41;4910611;29;20044;-80
2023/09/12 08:41:50;;;;;;;10.57;3.55;;;;;;;25.14;54.19;100982.69;4922782;29;20035;-83
2023/09/12 08:44:16;;;;;;;22.05;5.10;;;;;;;25.14;53.75;100977.16;4930462;29;20044;-80
2023/09/12 08:46:42;;;;;;;3.50;2.67;;;;;;;25.33;54.22;100989.25;4964711;28;20054;-83
2023/09/12 08:49:09;;;;;;;10.93;3.58;;;;;;;25.47;53.23;100985.44;4972485;28;20030;-87
2023/09/12 08:51:36;;;;;;;9.85;4.20;;;;;;;25.47;53.96;100993.72;4992023;28;20182;-86
2023/09/12 08:54:03;;;;;;;7.35;3.35;;;;;;;25.45;54.09;100982.91;4991101;28;20026;-84
2023/09/12 08:56:32;;;;;;;9.32;3.25;;;;;;;25.36;53.72;100986.94;4989402;28;20022;-80
2023/09/12 08:58:58;;;;;;;11.48;3.22;;;;;;;25.19;54.14;100979.31;4990681;28;20027;-84
2023/09/12 09:01:27;;;;;;;16.52;4.40;;;;;;;25.36;54.36;100975.91;4994058;28;20034;-80
2023/09/12 09:03:53;;;;;;;15.85;3.75;;;;;;;25.47;53.26;100985.44;4990395;28;20037;-81
2023/09/12 09:06:21;;;;;;;18.55;3.60;;;;;;;25.54;53.50;100991.81;4976125;28;20378;-80
2023/09/12 09:08:48;;;;;;;9.98;3.42;;;;;;;25.67;52.61;100989.06;4994119;28;20034;-81
2023/09/12 09:11:13;;;;;;;4.90;3.00;;;;;;;25.63;52.35;100974.00;4997109;28;20049;-79
2023/09/12 09:13:39;;;;;;;16.05;3.45;;;;;;;25.76;52.68;100992.41;4994657;28;20407;-79
2023/09/12 09:16:18;;;;;;;9.82;3.47;;;;;;;25.85;52.25;100991.97;4991827;28;20042;-80
2023/09/12 09:18:50;;;;;;;11.13;3.90;;;;;;;25.73;52.26;100987.34;4992112;28;20034;-81
2023/09/12 09:21:20;;;;;;;18.47;4.67;;;;;;;25.64;52.57;100983.97;4990288;28;20022;-83
2023/09/12 09:23:46;;;;;;;18.65;3.72;;;;;;;25.57;53.49;100991.38;4990156;28;20058;-80
2023/09/12 09:26:12;;;;;;;11.45;3.10;;;;;;;25.52;53.74;100982.94;4990241;28;20517;-78
2023/09/12 09:28:39;;;;;;;34.88;5.50;;;;;;;25.67;52.48;100993.72;4990215;28;20027;-80
2023/09/12 09:31:10;;;;;;;10.85;3.30;;;;;;;25.74;52.24;100989.03;4952499;28;20046;-85
2023/09/12 09:33:36;;;;;;;5.57;2.60;;;;;;;25.62;52.34;100977.84;4950643;28;20039;-81
2023/09/12 09:36:04;;;;;;;7.72;3.30;;;;;;;25.56;52.04;100983.34;4948970;28;20134;-84
2023/09/12 09:38:30;;;;;;;9.98;3.30;;;;;;;25.47;52.47;100971.69;4932173;29;20187;-83
2023/09/12 09:40:55;;;;;;;13.82;3.60;;;;;;;25.59;52.23;100991.19;4930864;29;20063;-79
2023/09/12 09:43:22;;;;;;;13.40;3.22;;;;;;;25.48;51.22;100983.50;4929442;29;20796;-82
2023/09/12 09:45:47;;;;;;;4.97;2.67;;;;;;;25.61;51.24;100997.31;4929968;29;20150;-83
2023/09/12 09:48:20;;;;;;;8.90;2.90;;;;;;;25.40;50.85;100977.19;4929637;29;20122;-80
2023/09/12 09:50:45;;;;;;;16.90;4.72;;;;;;;25.25;50.92;100995.84;4929023;29;20134;-82
2023/09/12 09:53:11;;;;;;;13.18;4.20;;;;;;;25.10;51.16;100969.56;4926273;29;20040;-80
2023/09/12 09:55:36;;;;;;;7.35;2.75;;;;;;;25.17;50.75;100992.41;4911254;29;20099;-80
2023/09/12 09:58:05;;;;;;;10.10;3.15;;;;;;;25.35;50.53;101001.75;4911110;29;20051;-81
2023/09/12 10:00:33;;;;;;;7.65;2.65;;;;;;;25.43;50.36;100993.28;4895558;29;20531;-83
2023/09/12 10:02:59;;;;;;;11.88;2.70;;;;;;;25.63;50.45;100998.78;4910981;29;20591;-82
2023/09/12 10:05:27;;;;;;;8.25;2.72;;;;;;;25.70;49.58;101004.31;4911703;29;20041;-82
2023/09/12 10:07:57;;;;;;;10.02;3.58;;;;;;;25.77;49.31;100994.97;4921389;28;20054;-83
2023/09/12 10:10:25;;;;;;;4.85;2.47;;;;;;;25.83;48.49;100996.88;4969356;28;20039;-82
2023/09/12 10:12:57;;;;;;;25.13;4.90;;;;;;;25.86;48.51;100999.19;4981731;28;20034;-83
2023/09/12 10:15:23;;;;;;;10.10;5.33;;;;;;;25.95;48.44;100986.88;4992364;28;20105;-83
2023/09/12 10:18:00;;;;;;;7.70;2.80;;;;;;;25.93;47.58;100971.63;4990498;28;20439;-82
2023/09/12 10:20:37;;;;;;;10.40;3.08;;;;;;;26.12;47.85;100991.88;4955528;28;20063;-86
2023/09/12 10:23:14;;;;;;;3.85;2.58;;;;;;;26.17;47.46;100989.38;4990392;28;20096;-84
2023/09/12 10:25:43;;;;;;;15.73;3.63;;;;;;;26.12;46.91;100997.41;4989949;28;20092;-82
2023/09/12 10:28:09;;;;;;;5.82;2.80;;;;;;;25.97;46.95;100983.88;4989827;28;20039;-84
2023/09/12 10:30:36;;;;;;;12.55;3.13;;;;;;;26.06;47.03;100988.09;4989783;28;20036;-81
2023/09/12 10:33:05;;;;;;;10.88;2.90;;;;;;;26.13;47.00;100982.56;4990371;28;20521;-80
2023/09/12 10:35:33;;;;;;;11.88;3.70;;;;;;;26.20;46.82;100991.69;4990505;28;20019;-86
2023/09/12 10:38:05;;;;;;;5.75;2.83;;;;;;;26.06;46.63;100970.69;4989832;28;20513;-83
2023/09/12 10:40:34;;;;;;;17.38;8.02;;;;;;;26.09;46.56;100964.75;4989845;28;20068;-83
2023/09/12 10:43:03;;;;;;;5.57;3.20;;;;;;;26.28;46.25;100980.41;4939481;28;20068;-81
2023/09/12 10:45:31;;;;;;;15.02;2.45;;;;;;;26.34;46.47;100985.06;4989814;28;20380;-83
2023/09/12 10:47:56;;;;;;;12.27;4.03;;;;;;;26.33;46.42;100948.34;4989743;28;20030;-84
2023/09/12 10:50:21;;;;;;;7.40;2.85;;;;;;;26.57;45.51;100968.81;4990139;28;20031;-83
2023/09/12 10:52:47;;;;;;;7.10;2.47;;;;;;;26.50;45.22;100973.53;4990485;28;20479;-82
2023/09/12 10:55:19;;;;;;;6.28;2.97;;;;;;;26.42;45.51;100985.66;4997420;28;20022;-80
2023/09/12 10:58:05;;;;;;;13.32;2.55;;;;;;;26.47;45.51;100971.22;4993875;28;20018;-82
2023/09/12 11:00:34;;;;;;;8.73;2.95;;;;;;;26.36;45.07;100961.69;4989714;28;20593;-83
2023/09/12 11:03:20;;;;;;;5.00;2.50;;;;;;;26.24;45.96;100968.13;4991405;28;20073;-83
2023/09/12 11:05:53;;;;;;;12.00;3.60;;;;;;;26.50;45.22;100971.63;4974983;28;20406;-83
2023/09/12 11:08:19;;;;;;;21.00;4.82;;;;;;;26.52;45.51;100963.09;4992821;28;20038;-82
2023/09/12 11:10:44;;;;;;;9.55;2.90;;;;;;;26.60;45.90;100967.53;4994001;28;20030;-81
2023/09/12 11:13:18;;;;;;;5.18;2.83;;;;;;;26.58;45.14;100964.97;4993235;28;20125;-81
2023/09/12 11:16:10;;;;;;;7.40;2.97;;;;;;;26.41;45.18;100964.66;4992889;28;20097;-82